createdAt,value
2022-08-26T00:01:55.238Z,24.10
2022-08-26T00:04:26.083Z,24.10
2022-08-26T00:06:55.706Z,24.00
2022-08-26T00:09:23.848Z,24.00
2022-08-26T00:11:54.003Z,23.90
2022-08-26T00:14:23.463Z,23.80
2022-08-26T00:16:54.062Z,23.90
2022-08-26T00:19:22.389Z,23.90
2022-08-26T00:21:50.074Z,23.80
2022-08-26T00:24:19.011Z,23.80
2022-08-26T00:26:46.124Z,23.80
2022-08-26T00:29:13.143Z,23.80
2022-08-26T00:31:40.426Z,23.80
2022-08-26T00:34:09.544Z,23.80
2022-08-26T00:36:39.530Z,23.80
2022-08-26T00:39:07.611Z,23.80
2022-08-26T00:41:37.468Z,23.80
2022-08-26T00:44:05.631Z,23.80
2022-08-26T00:46:37.625Z,23.80
2022-08-26T00:49:22.370Z,23.70
2022-08-26T00:51:56.982Z,23.70
2022-08-26T00:54:27.401Z,23.60
2022-08-26T00:57:15.837Z,23.60
2022-08-26T00:59:47.766Z,23.60
2022-08-26T01:02:19.988Z,23.60
2022-08-26T01:04:55.846Z,23.60
2022-08-26T01:07:30.217Z,23.60
2022-08-26T01:09:59.974Z,23.60
2022-08-26T01:12:29.910Z,23.50
2022-08-26T01:14:56.791Z,23.60
2022-08-26T01:17:23.867Z,23.60
2022-08-26T01:19:55.612Z,23.60
2022-08-26T01:22:31.188Z,23.70
2022-08-26T01:25:00.918Z,23.70
2022-08-26T01:27:32.923Z,23.80
2022-08-26T01:30:02.147Z,23.80
2022-08-26T01:32:31.700Z,23.80
2022-08-26T01:34:59.340Z,23.70
2022-08-26T01:37:34.888Z,23.60
2022-08-26T01:40:02.139Z,23.60
2022-08-26T01:42:29.368Z,23.50
2022-08-26T01:45:11.423Z,23.50
2022-08-26T01:47:39.240Z,23.50
2022-08-26T01:50:13.265Z,23.50
2022-08-26T01:52:49.977Z,23.50
2022-08-26T01:55:32.969Z,23.50
2022-08-26T01:58:04.810Z,23.40
2022-08-26T02:00:34.109Z,23.40
2022-08-26T02:03:21.663Z,23.30
2022-08-26T02:05:57.197Z,23.30
2022-08-26T02:08:36.137Z,23.30
2022-08-26T02:11:03.940Z,23.30
2022-08-26T02:13:33.718Z,23.30
2022-08-26T02:16:03.914Z,23.20
2022-08-26T02:18:35.145Z,23.20
2022-08-26T02:21:03.043Z,23.20
2022-08-26T02:23:34.033Z,23.20
2022-08-26T02:26:10.528Z,23.20
2022-08-26T02:28:51.253Z,23.20
2022-08-26T02:31:18.497Z,23.10
2022-08-26T02:33:45.323Z,23.00
2022-08-26T02:36:13.364Z,23.00
2022-08-26T02:38:40.405Z,23.00
2022-08-26T02:41:10.368Z,23.10
2022-08-26T02:43:37.341Z,23.10
2022-08-26T02:46:04.756Z,23.10
2022-08-26T02:48:31.692Z,23.10
2022-08-26T02:51:00.644Z,23.10
2022-08-26T02:53:31.891Z,23.00
2022-08-26T02:55:59.863Z,23.00
2022-08-26T02:58:26.912Z,23.00
2022-08-26T03:00:53.978Z,23.00
2022-08-26T03:03:22.536Z,23.00
2022-08-26T03:05:50.903Z,23.00
2022-08-26T03:08:17.990Z,23.00
2022-08-26T03:10:46.533Z,22.90
2022-08-26T03:13:15.642Z,22.90
2022-08-26T03:15:42.471Z,23.00
2022-08-26T03:18:09.781Z,22.90
2022-08-26T03:20:37.095Z,23.00
2022-08-26T03:23:04.074Z,23.00
2022-08-26T03:25:31.276Z,22.90
2022-08-26T03:27:58.065Z,22.90
2022-08-26T03:30:44.787Z,22.90
2022-08-26T03:33:13.178Z,22.80
2022-08-26T03:35:42.869Z,22.80
2022-08-26T03:38:10.275Z,22.80
2022-08-26T03:40:37.746Z,22.80
2022-08-26T03:43:05.999Z,22.80
2022-08-26T03:45:37.039Z,22.80
2022-08-26T03:48:04.370Z,22.80
2022-08-26T03:50:34.216Z,22.80
2022-08-26T03:53:03.413Z,22.80
2022-08-26T03:55:32.479Z,22.80
2022-08-26T03:58:01.079Z,22.80
2022-08-26T04:00:28.516Z,22.70
2022-08-26T04:02:55.424Z,22.70
2022-08-26T04:05:23.376Z,22.70
2022-08-26T04:07:51.054Z,21.40
2022-08-26T04:10:22.138Z,22.60
2022-08-26T04:12:55.667Z,22.60
2022-08-26T04:15:26.915Z,22.60
2022-08-26T04:17:54.067Z,22.60
2022-08-26T04:20:22.873Z,22.60
2022-08-26T04:22:50.677Z,22.60
2022-08-26T04:25:18.604Z,22.60
2022-08-26T04:27:47.308Z,22.60
2022-08-26T04:30:15.917Z,22.60
2022-08-26T04:32:43.550Z,22.60
2022-08-26T04:35:10.397Z,22.50
2022-08-26T04:37:37.506Z,22.50
2022-08-26T04:40:05.387Z,22.60
2022-08-26T04:42:33.482Z,22.60
2022-08-26T04:45:01.231Z,22.60
2022-08-26T04:47:32.138Z,22.50
2022-08-26T04:50:00.055Z,22.60
2022-08-26T04:52:28.719Z,22.50
2022-08-26T04:54:55.513Z,22.50
2022-08-26T04:57:23.362Z,22.50
2022-08-26T04:59:50.167Z,22.50
2022-08-26T05:02:17.128Z,22.50
2022-08-26T05:04:44.011Z,22.50
2022-08-26T05:07:11.593Z,22.50
2022-08-26T05:09:40.618Z,22.50
2022-08-26T05:12:08.375Z,22.50
2022-08-26T05:14:36.277Z,22.50
2022-08-26T05:17:03.891Z,22.50
2022-08-26T05:19:31.705Z,22.50
2022-08-26T05:21:59.866Z,22.40
2022-08-26T05:24:26.722Z,22.50
2022-08-26T05:26:54.489Z,22.40
2022-08-26T05:29:23.678Z,22.50
2022-08-26T05:31:52.437Z,22.50
2022-08-26T05:34:20.781Z,22.50
2022-08-26T05:36:48.011Z,22.50
2022-08-26T05:39:15.030Z,22.50
2022-08-26T05:41:44.683Z,22.50
2022-08-26T05:44:14.241Z,22.50
2022-08-26T05:46:42.092Z,22.60
2022-08-26T05:49:13.063Z,22.60
2022-08-26T05:51:41.958Z,22.70
2022-08-26T05:54:10.356Z,22.70
2022-08-26T05:56:38.393Z,22.70
2022-08-26T05:59:06.032Z,22.70
2022-08-26T06:01:42.244Z,22.70
2022-08-26T06:04:09.661Z,22.80
2022-08-26T06:06:37.422Z,22.80
2022-08-26T06:09:07.209Z,23.00
2022-08-26T06:11:38.901Z,23.00
2022-08-26T06:14:07.112Z,23.00
2022-08-26T06:16:40.834Z,23.10
2022-08-26T06:19:10.815Z,23.10
2022-08-26T06:21:40.147Z,23.10
2022-08-26T06:24:29.687Z,23.20
2022-08-26T06:27:01.522Z,23.30
2022-08-26T06:29:30.734Z,23.40
2022-08-26T06:31:58.227Z,23.50
2022-08-26T06:34:29.935Z,23.60
2022-08-26T06:36:59.796Z,23.80
2022-08-26T06:39:30.952Z,23.80
2022-08-26T06:42:01.146Z,23.80
2022-08-26T06:44:29.994Z,23.80
2022-08-26T06:46:57.035Z,23.80
2022-08-26T06:49:25.838Z,23.80
2022-08-26T06:51:58.423Z,23.90
2022-08-26T06:54:26.991Z,23.90
2022-08-26T06:56:55.941Z,23.90
2022-08-26T06:59:24.213Z,24.00
2022-08-26T07:01:52.363Z,24.00
2022-08-26T07:04:23.291Z,24.10
2022-08-26T07:06:52.936Z,24.20
2022-08-26T07:09:25.945Z,24.30
2022-08-26T07:11:54.963Z,24.30
2022-08-26T07:14:22.684Z,24.40
2022-08-26T07:16:51.156Z,24.30
2022-08-26T07:19:31.031Z,24.50
2022-08-26T07:22:03.921Z,24.50
2022-08-26T07:24:36.423Z,24.60
2022-08-26T07:27:08.594Z,24.60
2022-08-26T07:29:37.076Z,24.70
2022-08-26T07:32:05.685Z,24.70
2022-08-26T07:34:34.033Z,24.80
2022-08-26T07:37:01.568Z,24.80
2022-08-26T07:39:31.351Z,24.90
2022-08-26T07:42:08.011Z,24.90
2022-08-26T07:44:37.480Z,25.00
2022-08-26T07:47:10.529Z,25.00
2022-08-26T07:49:52.657Z,25.00
2022-08-26T07:52:22.773Z,25.10
2022-08-26T07:54:53.252Z,25.10
2022-08-26T07:57:20.441Z,25.00
2022-08-26T07:59:47.980Z,25.10
2022-08-26T08:02:15.577Z,25.10
2022-08-26T08:04:43.423Z,25.10
2022-08-26T08:07:10.629Z,25.10
2022-08-26T08:09:40.731Z,25.20
2022-08-26T08:12:08.466Z,25.20
2022-08-26T08:14:41.260Z,25.30
2022-08-26T08:17:09.720Z,25.40
2022-08-26T08:19:39.200Z,25.50
2022-08-26T08:22:17.348Z,25.60
2022-08-26T08:24:49.780Z,25.70
2022-08-26T08:27:22.811Z,25.80
2022-08-26T08:29:51.133Z,25.90
2022-08-26T08:32:19.083Z,25.90
2022-08-26T08:34:46.199Z,26.00
2022-08-26T08:37:12.996Z,26.10
2022-08-26T08:39:39.921Z,26.20
2022-08-26T08:42:36.350Z,26.20
2022-08-26T08:45:35.931Z,26.20
2022-08-26T08:48:28.139Z,26.20
2022-08-26T08:51:33.122Z,26.20
2022-08-26T08:54:02.760Z,26.20
2022-08-26T08:56:37.726Z,26.30
2022-08-26T08:59:20.896Z,26.30
2022-08-26T09:01:57.503Z,26.30
2022-08-26T09:05:02.334Z,26.30
2022-08-26T09:07:36.862Z,26.30
2022-08-26T09:10:30.655Z,26.30
2022-08-26T09:12:58.902Z,26.40
2022-08-26T09:15:58.516Z,26.40
2022-08-26T09:19:04.136Z,26.40
2022-08-26T09:21:32.203Z,26.40
2022-08-26T09:24:00.276Z,26.40
2022-08-26T09:26:38.705Z,26.50
2022-08-26T09:29:27.540Z,26.50
2022-08-26T09:32:24.410Z,26.60
2022-08-26T09:35:15.291Z,26.60
2022-08-26T09:40:29.331Z,26.70
2022-08-26T09:43:22.147Z,26.70
2022-08-26T09:45:59.465Z,26.70
2022-08-26T09:48:36.353Z,26.70
2022-08-26T09:51:23.538Z,26.80
2022-08-26T09:54:02.488Z,26.80
2022-08-26T09:56:39.501Z,26.80
2022-08-26T09:59:11.129Z,26.80
2022-08-26T10:01:44.721Z,26.90
2022-08-26T10:04:20.738Z,26.90
2022-08-26T10:07:05.769Z,26.90
2022-08-26T10:09:39.827Z,26.90
2022-08-26T10:12:15.481Z,26.90
2022-08-26T10:14:57.807Z,27.00
2022-08-26T10:17:48.232Z,27.00
2022-08-26T10:20:23.921Z,27.10
2022-08-26T10:22:54.134Z,27.10
2022-08-26T10:25:27.624Z,27.10
2022-08-26T10:28:37.129Z,27.20
2022-08-26T10:31:07.402Z,27.20
2022-08-26T10:33:34.262Z,27.30
2022-08-26T10:36:05.964Z,27.40
2022-08-26T10:38:35.742Z,27.40
2022-08-26T10:41:24.250Z,27.40
2022-08-26T10:44:00.372Z,27.60
2022-08-26T10:46:41.039Z,27.50
2022-08-26T10:49:17.459Z,27.60
2022-08-26T10:52:01.137Z,27.60
2022-08-26T10:55:22.838Z,27.70
2022-08-26T10:57:56.020Z,27.70
2022-08-26T11:00:47.972Z,27.70
2022-08-26T11:03:52.159Z,27.70
2022-08-26T11:06:18.937Z,27.70
2022-08-26T11:08:53.148Z,27.80
2022-08-26T11:11:41.871Z,27.80
2022-08-26T11:14:29.857Z,27.90
2022-08-26T11:16:59.894Z,28.00
2022-08-26T11:19:50.876Z,28.00
2022-08-26T11:22:33.427Z,28.00
2022-08-26T11:25:06.668Z,28.10
2022-08-26T11:27:37.025Z,28.10
2022-08-26T11:30:38.545Z,28.10
2022-08-26T11:33:08.221Z,28.20
2022-08-26T11:35:37.453Z,28.30
2022-08-26T11:38:27.323Z,28.30
2022-08-26T11:41:11.459Z,28.20
2022-08-26T11:43:40.036Z,28.20
2022-08-26T11:46:12.781Z,28.20
2022-08-26T11:48:42.425Z,28.30
2022-08-26T11:51:23.810Z,28.30
2022-08-26T11:53:51.357Z,28.30
2022-08-26T11:56:18.416Z,28.30
2022-08-26T11:58:48.864Z,28.20
2022-08-26T12:01:31.691Z,28.20
2022-08-26T12:04:00.149Z,28.20
2022-08-26T12:06:37.486Z,29.00
2022-08-26T12:09:21.558Z,28.10
2022-08-26T12:11:48.858Z,28.00
2022-08-26T12:14:19.100Z,28.00
2022-08-26T12:16:46.142Z,28.00
2022-08-26T12:19:27.343Z,27.90
2022-08-26T12:22:02.178Z,27.80
2022-08-26T12:24:29.691Z,27.80
2022-08-26T12:27:21.400Z,27.80
2022-08-26T12:30:13.916Z,27.80
2022-08-26T12:33:15.756Z,27.80
2022-08-26T12:35:52.833Z,27.80
2022-08-26T12:38:22.500Z,27.70
2022-08-26T12:40:50.438Z,27.70
2022-08-26T12:43:41.327Z,27.70
2022-08-26T12:46:24.312Z,27.70
2022-08-26T12:48:51.312Z,27.70
2022-08-26T12:51:26.407Z,27.70
2022-08-26T12:53:54.339Z,27.60
2022-08-26T12:56:36.373Z,27.60
2022-08-26T12:59:10.269Z,27.60
2022-08-26T13:01:43.223Z,27.60
2022-08-26T13:04:35.952Z,27.50
2022-08-26T13:07:22.207Z,27.50
2022-08-26T13:09:57.644Z,27.50
2022-08-26T13:12:37.374Z,27.60
2022-08-26T13:15:06.186Z,27.60
2022-08-26T13:17:35.102Z,27.60
2022-08-26T13:20:04.165Z,27.70
2022-08-26T13:22:32.192Z,27.60
2022-08-26T13:24:59.178Z,27.60
2022-08-26T13:27:27.302Z,27.60
2022-08-26T13:29:57.213Z,27.50
2022-08-26T13:32:25.571Z,27.40
2022-08-26T13:34:56.400Z,27.40
2022-08-26T13:37:29.320Z,27.40
2022-08-26T13:40:04.973Z,27.50
2022-08-26T13:42:31.893Z,27.50
2022-08-26T13:44:59.778Z,27.50
2022-08-26T13:47:27.658Z,27.50
2022-08-26T13:49:55.305Z,27.50
2022-08-26T13:52:30.678Z,27.50
2022-08-26T13:55:01.016Z,27.50
2022-08-26T13:57:30.137Z,27.50
2022-08-26T13:59:59.244Z,27.60
2022-08-26T14:02:27.716Z,27.60
2022-08-26T14:04:55.346Z,27.70
2022-08-26T14:07:22.671Z,27.70
2022-08-26T14:09:49.822Z,27.70
2022-08-26T14:12:16.773Z,27.80
2022-08-26T14:14:44.749Z,27.80
2022-08-26T14:17:17.180Z,27.80
2022-08-26T14:19:46.745Z,27.80
2022-08-26T14:22:17.358Z,27.80
2022-08-26T14:24:45.086Z,27.80
2022-08-26T14:27:13.220Z,27.70
2022-08-26T14:29:40.807Z,27.70
2022-08-26T14:32:21.688Z,27.70
2022-08-26T14:34:49.783Z,27.70
2022-08-26T14:37:17.764Z,27.70
2022-08-26T14:39:46.279Z,27.70
2022-08-26T14:42:15.993Z,27.70
2022-08-26T14:44:46.200Z,27.80
2022-08-26T14:47:13.250Z,27.80
2022-08-26T14:49:40.164Z,27.80
2022-08-26T14:52:07.128Z,27.80
2022-08-26T14:54:34.289Z,27.90
2022-08-26T14:57:07.990Z,27.90
2022-08-26T14:59:41.025Z,28.00
2022-08-26T15:02:13.803Z,28.10
2022-08-26T15:04:54.576Z,28.10
2022-08-26T15:07:21.619Z,28.10
2022-08-26T15:09:48.530Z,28.20
2022-08-26T15:12:15.385Z,28.20
2022-08-26T15:14:42.228Z,28.20
2022-08-26T15:17:09.054Z,28.20
2022-08-26T15:19:35.924Z,28.20
2022-08-26T15:22:02.803Z,28.20
2022-08-26T15:24:29.721Z,28.10
2022-08-26T15:26:57.504Z,28.00
2022-08-26T15:29:24.513Z,28.00
2022-08-26T15:31:51.656Z,28.00
2022-08-26T15:34:22.020Z,28.00
2022-08-26T15:36:48.784Z,28.00
2022-08-26T15:39:17.314Z,28.00
2022-08-26T15:41:44.814Z,28.00
2022-08-26T15:44:12.859Z,28.00
2022-08-26T15:46:40.334Z,28.00
2022-08-26T15:49:07.523Z,28.00
2022-08-26T15:51:45.554Z,28.00
2022-08-26T15:54:16.025Z,27.80
2022-08-26T15:56:43.578Z,28.00
2022-08-26T15:59:11.565Z,28.10
2022-08-26T16:01:39.194Z,28.10
2022-08-26T16:04:06.600Z,28.20
2022-08-26T16:06:36.690Z,28.20
2022-08-26T16:09:04.134Z,28.20
2022-08-26T16:11:31.305Z,28.20
2022-08-26T16:13:58.424Z,28.20
2022-08-26T16:16:25.410Z,28.10
2022-08-26T16:18:53.138Z,28.10
2022-08-26T16:21:23.288Z,28.00
2022-08-26T16:23:52.145Z,28.00
2022-08-26T16:26:21.993Z,27.90
2022-08-26T16:28:49.196Z,27.90
2022-08-26T16:31:16.677Z,27.90
2022-08-26T16:33:44.255Z,27.90
2022-08-26T16:36:11.392Z,27.80
2022-08-26T16:38:39.397Z,27.80
2022-08-26T16:41:07.093Z,27.80
2022-08-26T16:43:34.545Z,27.70
2022-08-26T16:46:01.501Z,27.70
2022-08-26T16:48:28.788Z,27.60
2022-08-26T16:50:55.850Z,27.60
2022-08-26T16:53:23.462Z,27.60
2022-08-26T16:55:50.869Z,27.50
2022-08-26T16:58:18.803Z,27.40
2022-08-26T17:00:45.789Z,27.50
2022-08-26T17:03:13.292Z,27.50
2022-08-26T17:05:40.400Z,27.40
2022-08-26T17:08:07.959Z,27.40
2022-08-26T17:10:35.173Z,27.40
2022-08-26T17:13:02.217Z,27.40
2022-08-26T17:15:29.366Z,27.30
2022-08-26T17:17:56.970Z,27.30
2022-08-26T17:20:25.276Z,27.30
2022-08-26T17:22:54.307Z,27.40
2022-08-26T17:25:32.062Z,27.40
2022-08-26T17:27:59.670Z,27.30
2022-08-26T17:30:27.069Z,27.30
2022-08-26T17:32:56.770Z,27.30
2022-08-26T17:35:23.632Z,27.10
2022-08-26T17:37:51.167Z,27.10
2022-08-26T17:40:21.898Z,27.10
2022-08-26T17:42:49.853Z,27.00
2022-08-26T17:45:17.138Z,27.00
2022-08-26T17:47:45.221Z,27.00
2022-08-26T17:50:16.999Z,26.80
2022-08-26T17:52:44.700Z,26.80
2022-08-26T17:55:15.181Z,26.70
2022-08-26T17:57:44.505Z,26.40
2022-08-26T18:00:26.501Z,26.00
2022-08-26T18:02:55.036Z,25.60
2022-08-26T18:05:22.467Z,25.40
2022-08-26T18:07:49.516Z,25.20
2022-08-26T18:10:18.740Z,25.00
2022-08-26T18:12:46.242Z,24.90
2022-08-26T18:15:16.862Z,24.80
2022-08-26T18:17:44.304Z,24.80
2022-08-26T18:20:15.670Z,24.70
2022-08-26T18:22:43.107Z,24.70
2022-08-26T18:25:10.479Z,24.60
2022-08-26T18:27:38.021Z,24.60
2022-08-26T18:30:11.377Z,24.60
2022-08-26T18:32:40.653Z,24.50
2022-08-26T18:35:08.422Z,24.40
2022-08-26T18:37:35.421Z,24.40
2022-08-26T18:40:02.429Z,24.40
2022-08-26T18:42:30.858Z,24.40
2022-08-26T18:44:57.860Z,24.50
2022-08-26T18:47:24.693Z,24.50
2022-08-26T18:49:51.598Z,24.60
2022-08-26T18:52:18.546Z,24.60
2022-08-26T18:54:46.433Z,24.60
2022-08-26T18:57:13.265Z,24.70
2022-08-26T18:59:41.073Z,24.60
2022-08-26T19:02:09.513Z,24.80
2022-08-26T19:04:38.604Z,24.80
2022-08-26T19:07:06.977Z,24.80
2022-08-26T19:09:34.344Z,24.80
2022-08-26T19:12:04.349Z,24.80
2022-08-26T19:14:32.041Z,24.80
2022-08-26T19:16:59.384Z,24.80
2022-08-26T19:19:26.421Z,24.80
2022-08-26T19:21:53.699Z,24.80
2022-08-26T19:24:21.223Z,24.80
2022-08-26T19:26:51.438Z,24.70
2022-08-26T19:29:26.833Z,24.70
2022-08-26T19:31:53.981Z,24.70
2022-08-26T19:34:21.044Z,24.80
2022-08-26T19:36:48.772Z,24.80
2022-08-26T19:39:15.914Z,24.80
2022-08-26T19:41:42.854Z,24.80
2022-08-26T19:44:13.226Z,24.80
2022-08-26T19:46:40.753Z,24.80
2022-08-26T19:49:07.996Z,24.80
2022-08-26T19:51:36.418Z,24.80
2022-08-26T19:54:04.317Z,24.80
2022-08-26T19:56:31.703Z,24.80
2022-08-26T19:58:58.579Z,24.70
2022-08-26T20:01:26.089Z,24.70
2022-08-26T20:03:53.415Z,24.60
2022-08-26T20:06:20.829Z,24.50
2022-08-26T20:08:47.892Z,24.40
2022-08-26T20:11:19.004Z,24.30
2022-08-26T20:13:47.405Z,24.20
2022-08-26T20:16:15.207Z,24.00
2022-08-26T20:19:02.271Z,24.00
2022-08-26T20:21:33.163Z,23.90
2022-08-26T20:24:20.965Z,23.80
2022-08-26T20:26:48.192Z,23.80
2022-08-26T20:29:16.999Z,23.80
2022-08-26T20:31:46.973Z,23.80
2022-08-26T20:34:15.674Z,23.80
2022-08-26T20:36:43.184Z,23.80
2022-08-26T20:39:10.905Z,23.80
2022-08-26T20:41:38.261Z,23.80
2022-08-26T20:44:05.964Z,23.70
2022-08-26T20:46:34.884Z,23.60
2022-08-26T20:49:02.411Z,23.60
2022-08-26T20:51:34.311Z,23.70
2022-08-26T20:54:01.535Z,23.60
2022-08-26T20:56:28.639Z,23.70
2022-08-26T20:59:00.313Z,23.60
2022-08-26T21:01:30.709Z,23.70
2022-08-26T21:03:57.851Z,23.80
2022-08-26T21:06:25.018Z,23.90
2022-08-26T21:08:51.838Z,23.90
2022-08-26T21:11:19.977Z,23.90
2022-08-26T21:16:36.192Z,23.80
2022-08-26T21:19:06.197Z,23.90
2022-08-26T21:21:33.473Z,23.90
2022-08-26T21:24:00.700Z,23.90
2022-08-26T21:26:28.054Z,23.90
2022-08-26T21:28:55.513Z,23.90
2022-08-26T21:31:24.473Z,23.90
2022-08-26T21:33:51.952Z,23.90
2022-08-26T21:36:20.141Z,24.00
2022-08-26T21:38:47.203Z,24.00
2022-08-26T21:41:19.470Z,24.00
2022-08-26T21:43:47.941Z,23.90
2022-08-26T21:46:18.222Z,23.90
2022-08-26T21:48:50.708Z,23.90
2022-08-26T21:51:20.728Z,23.90
2022-08-26T21:53:47.750Z,23.80
2022-08-26T21:56:17.835Z,23.80
2022-08-26T21:58:44.812Z,23.90
2022-08-26T22:01:21.432Z,23.80
2022-08-26T22:03:50.047Z,23.80
2022-08-26T22:06:18.650Z,23.80
2022-08-26T22:08:45.486Z,23.90
2022-08-26T22:11:13.376Z,23.90
2022-08-26T22:13:41.769Z,23.90
2022-08-26T22:16:09.920Z,23.80
2022-08-26T22:18:37.897Z,23.90
2022-08-26T22:21:11.541Z,23.90
2022-08-26T22:23:39.273Z,23.90
2022-08-26T22:26:07.970Z,23.90
2022-08-26T22:28:35.863Z,23.90
2022-08-26T22:31:02.681Z,23.90
2022-08-26T22:33:29.550Z,23.90
2022-08-26T22:35:56.400Z,23.80
2022-08-26T22:38:23.968Z,23.80
2022-08-26T22:40:56.034Z,23.80
2022-08-26T22:43:28.224Z,23.80
2022-08-26T22:45:55.945Z,23.80
2022-08-26T22:48:24.879Z,23.70
2022-08-26T22:51:00.037Z,23.70
2022-08-26T22:53:27.483Z,23.60
2022-08-26T22:55:54.509Z,23.60
2022-08-26T22:58:30.398Z,23.50
2022-08-26T23:00:59.394Z,23.50
2022-08-26T23:03:27.277Z,23.50
2022-08-26T23:05:55.608Z,23.50
2022-08-26T23:08:23.402Z,23.50
2022-08-26T23:10:51.227Z,23.50
2022-08-26T23:13:18.928Z,23.50
2022-08-26T23:15:46.452Z,23.50
2022-08-26T23:18:15.087Z,23.50
2022-08-26T23:20:42.512Z,23.60
2022-08-26T23:23:09.666Z,23.50
2022-08-26T23:25:36.517Z,23.50
2022-08-26T23:28:03.702Z,23.50
2022-08-26T23:30:32.364Z,23.50
2022-08-26T23:32:59.604Z,23.50
2022-08-26T23:35:27.037Z,23.50
2022-08-26T23:37:54.177Z,23.50
2022-08-26T23:40:33.350Z,23.50
2022-08-26T23:43:03.469Z,23.50
2022-08-26T23:45:31.419Z,23.50
2022-08-26T23:47:59.150Z,23.40
2022-08-26T23:50:48.259Z,23.30
2022-08-26T23:53:22.184Z,23.30
2022-08-26T23:55:52.990Z,23.40
2022-08-26T23:58:21.280Z,23.40
